Ventura — ZCDT2 — position and weather

sailwx.info

Track history (hours):
 
Tides and Currents Weather Stations Pressure Air Temp Water Temp Dewpoint Dewpoint Depression Visibility Wind Speed Wind Dir Waves Ship Positions

Ventura

Last reported at 2017-Apr-27 18:29 UTC. Time now 2017-Apr-27 18:49 UTC.
Position N 51°41' E 002°44'.

Length 289 m; draft 8.6 m.

Type: Passenger vessel. MMSI: 310562000.

Date/timePositionNaut miles runAvg speedWind from/ knotsBaromVisibWave heightAir tempDewpointWater temp
2017-Apr-27 18:29N 51°41' E 002°44'816.9
2017-Apr-27 18:01N 51°33' E 002°42'816.5
2017-Apr-27 17:31N 51°25' E 002°43'611.8
2017-Apr-27 17:01N 51°25' E 002°53'816.1
2017-Apr-27 16:31N 51°24' E 003°05'611.1
2017-Apr-27 16:00N 51°21' E 003°12'1 0.9
2017-Apr-27 15:28N 51°20' E 003°12'0 0.0
2017-Apr-27 14:58N 51°20' E 003°12'0 0.0
2017-Apr-27 13:58N 51°20' E 003°12'0 0.0
2017-Apr-27 13:28N 51°20' E 003°12'0 0.0
2017-Apr-27 12:58N 51°20' E 003°12'0 0.0
2017-Apr-27 12:28N 51°20' E 003°12'0 0.0
2017-Apr-27 11:58N 51°20' E 003°12'0 0.0
2017-Apr-27 11:28N 51°20' E 003°12'0 0.0
2017-Apr-27 10:58N 51°20' E 003°12'0 0.0
2017-Apr-27 10:28N 51°20' E 003°12'0 0.0
2017-Apr-27 09:58N 51°20' E 003°12'0 0.0
2017-Apr-27 09:28N 51°20' E 003°12'0 0.0
2017-Apr-27 08:58N 51°20' E 003°12'0 0.0
2017-Apr-27 08:28N 51°20' E 003°12'0 0.0
2017-Apr-27 07:58N 51°20' E 003°12'0 0.0
2017-Apr-27 07:28N 51°20' E 003°12'0 0.0
2017-Apr-27 06:58N 51°20' E 003°12'0 0.0
2017-Apr-27 06:28N 51°20' E 003°12'0 0.0
2017-Apr-27 06:00N 51°20' E 003°12'0 0.0
2017-Apr-27 05:30N 51°20' E 003°12'1 2.0
2017-Apr-27 05:01N 51°21' E 003°12'510.7
2017-Apr-27 04:30N 51°24' E 003°05'715.0
2017-Apr-27 04:01N 51°22' E 002°54'713.9
2017-Apr-27 03:31N 51°22' E 002°42'510.9
2017-Apr-27 03:01N 51°22' E 002°34'815.8
2017-Apr-27 02:30N 51°19' E 002°22'918.5
2017-Apr-27 02:00N 51°14' E 002°09'1019.2
2017-Apr-27 01:30N 51°09' E 001°56'1019.5
2017-Apr-27 01:00N 51°03' E 001°44'1020.2
2017-Apr-27 00:30N 50°56' E 001°33'1019.6
2017-Apr-27 00:00N 50°47' E 001°26'918.0
2017-Apr-26 23:30N 50°40' E 001°18'2548.1
2017-Apr-26 23:00N 50°24' E 000°48'3 3.1 010 / 301016.010.8 8.1 3.711.1
2017-Apr-26 22:04N 50°26' E 000°45'417.9
2017-Apr-26 21:52N 50°25' E 000°40'618.2
2017-Apr-26 21:30N 50°24' E 000°30'1017.9
2017-Apr-26 20:58N 50°21' E 000°15'818.2
2017-Apr-26 20:30N 50°20' E 000°02'917.8
2017-Apr-26 20:00N 50°21' W 000°11'917.8
2017-Apr-26 19:30N 50°25' W 000°24'917.9
2017-Apr-26 19:00N 50°30' W 000°36'918.1
2017-Apr-26 18:30N 50°35' W 000°48'816.4
2017-Apr-26 18:00N 50°41' W 000°57'612.7
2017-Apr-26 17:30N 50°44' W 001°05'816.3
2017-Apr-26 17:00N 50°47' W 001°18'5 9.0
2017-Apr-26 16:30N 50°51' W 001°20'4 8.9
2017-Apr-26 16:00N 50°54' W 001°25'1 1.1
2017-Apr-26 15:29N 50°54' W 001°26'0 0.0
2017-Apr-26 14:59N 50°54' W 001°26'0 0.0
2017-Apr-26 14:29N 50°54' W 001°26'0 0.0
2017-Apr-26 13:26N 50°54' W 001°26'0 0.0
2017-Apr-26 12:59N 50°54' W 001°26'0 0.0
2017-Apr-26 12:30N 50°54' W 001°26'0 0.0
2017-Apr-26 11:59N 50°54' W 001°26'0 0.0
2017-Apr-26 11:29N 50°54' W 001°26'0 0.0
2017-Apr-26 10:59N 50°54' W 001°26'0 0.0
2017-Apr-26 10:29N 50°54' W 001°26'0 0.0
2017-Apr-26 09:59N 50°54' W 001°26'0 0.0
2017-Apr-26 09:26N 50°54' W 001°26'0 0.0
2017-Apr-26 08:59N 50°54' W 001°26'0 0.0
2017-Apr-26 08:26N 50°54' W 001°26'0 0.0
2017-Apr-26 07:56N 50°54' W 001°26'0 0.0
2017-Apr-26 07:29N 50°54' W 001°26'0 0.0
2017-Apr-26 06:59N 50°54' W 001°26'0 0.0
2017-Apr-26 06:29N 50°54' W 001°26'0 0.0
2017-Apr-26 05:59N 50°54' W 001°26'0 0.0
2017-Apr-26 05:30N 50°54' W 001°26'0 0.2
2017-Apr-26 05:01N 50°54' W 001°26'1 2.2
2017-Apr-26 04:30N 50°54' W 001°25'4 8.3
2017-Apr-26 04:00N 50°51' W 001°20'4 8.5
2017-Apr-26 03:31N 50°47' W 001°19'713.6
2017-Apr-26 03:00N 50°46' W 001°08'713.7
2017-Apr-26 02:31N 50°42' W 000°58'510.2
2017-Apr-26 02:00N 50°37' W 000°59'815.9
2017-Apr-26 01:30N 50°30' W 001°05'816.0
2017-Apr-26 01:00N 50°28' W 001°17'916.4
2017-Apr-26 00:28N 50°25' W 001°30'5622.4
2017-Apr-25 22:00N 49°54' W 000°18'85211.1 360 / 301015.610.8 6.8 0.711.5
2017-Apr-25 21:35N 49°55' W 002°30'216.3
2017-Apr-25 21:30N 49°54' W 002°32'817.2
2017-Apr-25 21:00N 49°52' W 002°45'918.5
2017-Apr-25 20:30N 49°48' W 002°57'918.8
2017-Apr-25 20:00N 49°42' W 003°09'918.5
2017-Apr-25 19:31N 49°37' W 003°21'6319.0
2017-Apr-25 16:10N 48°59' W 004°39'319.7
2017-Apr-25 16:00N 48°57' W 004°43'1019.8
2017-Apr-25 15:30N 48°51' W 004°55'1019.7
2017-Apr-25 15:00N 48°44' W 005°05'1020.1
2017-Apr-25 14:30N 48°37' W 005°16'31919.3
2017-Apr-24 22:00N 44°00' W 009°06'19718.3 270 / 101012.610.8 14.3 9.513.5
2017-Apr-24 11:13N 40°46' W 009°50'419.4
2017-Apr-24 11:00N 40°42' W 009°51'1019.6
2017-Apr-24 10:30N 40°32' W 009°51'1119.7
2017-Apr-24 09:58N 40°21' W 009°51'919.8
2017-Apr-24 09:30N 40°12' W 009°51'1019.8
2017-Apr-24 09:00N 40°02' W 009°51'918.5
2017-Apr-24 08:30N 39°53' W 009°50'917.6
2017-Apr-24 08:01N 39°44' W 009°50'1019.5
2017-Apr-24 07:30N 39°35' W 009°51'1019.6
2017-Apr-24 07:00N 39°25' W 009°51'1019.4
2017-Apr-24 06:31N 39°15' W 009°51'1019.6
2017-Apr-24 06:01N 39°05' W 009°51'1019.5
2017-Apr-24 05:30N 38°56' W 009°51'1019.3
2017-Apr-24 05:00N 38°46' W 009°51'1019.6
2017-Apr-24 04:31N 38°36' W 009°49'1019.7
2017-Apr-24 04:01N 38°27' W 009°46'1019.8
2017-Apr-24 03:31N 38°17' W 009°42'1020.0
2017-Apr-24 03:01N 38°08' W 009°39'1019.8
2017-Apr-24 02:31N 37°58' W 009°36'1020.3
2017-Apr-24 02:00N 37°48' W 009°32'1020.2
2017-Apr-24 01:31N 37°38' W 009°30'1020.4
2017-Apr-24 01:01N 37°28' W 009°28'1020.4
2017-Apr-24 00:31N 37°18' W 009°25'1020.3
2017-Apr-24 00:01N 37°08' W 009°22'1020.2
2017-Apr-23 23:31N 36°58' W 009°20'1019.4
2017-Apr-23 23:01N 36°50' W 009°15'1019.4
2017-Apr-23 22:31N 36°45' W 009°05'1020.0
2017-Apr-23 22:01N 36°42' W 008°53'1019.9
2017-Apr-23 21:31N 36°39' W 008°41'1019.9
2017-Apr-23 21:01N 36°35' W 008°30'1019.8
2017-Apr-23 20:31N 36°33' W 008°18'1019.9
2017-Apr-23 19:59N 36°30' W 008°05'11919.7
2017-Apr-23 13:56N 35°58' W 005°43'818.4
2017-Apr-23 13:30N 35°59' W 005°34'917.6
2017-Apr-23 13:01N 36°03' W 005°24'611.8
2017-Apr-23 12:30N 36°09' W 005°22'0 0.4
2017-Apr-23 12:00N 36°09' W 005°22'0 0.0
2017-Apr-23 11:30N 36°09' W 005°22'0 0.0
2017-Apr-23 11:00N 36°09' W 005°22'0 0.0
2017-Apr-23 10:30N 36°09' W 005°22'0 0.0
2017-Apr-23 10:00N 36°09' W 005°22'0 0.0
2017-Apr-23 09:30N 36°09' W 005°22'0 0.0
2017-Apr-23 09:00N 36°09' W 005°22'0 0.0
2017-Apr-23 08:30N 36°09' W 005°22'0 0.0
2017-Apr-23 08:00N 36°09' W 005°22'0 0.0
2017-Apr-23 07:30N 36°09' W 005°22'0 0.0
2017-Apr-23 07:00N 36°09' W 005°22'0 0.0
2017-Apr-23 06:30N 36°09' W 005°22'0 0.0
2017-Apr-23 06:00N 36°09' W 005°22'0 0.0
2017-Apr-23 05:30N 36°09' W 005°22'1 1.3
2017-Apr-23 05:00N 36°08' W 005°22'4 7.2
2017-Apr-23 04:30N 36°05' W 005°20'816.8
2017-Apr-23 04:00N 36°09' W 005°11'917.7
2017-Apr-23 03:30N 36°14' W 005°02'21111.9
2017-Apr-22 09:44N 37°30' W 000°56'417.8
2017-Apr-22 09:30N 37°30' W 000°50'919.0
2017-Apr-22 09:00N 37°30' W 000°39'1019.4
2017-Apr-22 08:31N 37°29' W 000°27'1121.5
2017-Apr-22 08:00N 37°30' W 000°13'65821.1
2017-Apr-21 00:52N 36°45' E 013°30'822.4
2017-Apr-21 00:30N 36°43' E 013°40'1121.9
2017-Apr-21 00:00N 36°39' E 013°53'1121.6
2017-Apr-20 23:30N 36°37' E 014°06'1121.7
2017-Apr-20 23:00N 36°34' E 014°19'1121.7
2017-Apr-20 22:30N 36°30' E 014°32'1121.5
2017-Apr-20 22:00N 36°27' E 014°45'40816.0
2017-Apr-19 20:32N 36°22' E 023°12'64 2.5
2017-Apr-18 19:21N 37°19' E 023°48'412.8
2017-Apr-18 19:00N 37°23' E 023°47'612.8
2017-Apr-18 18:30N 37°29' E 023°46'612.6
2017-Apr-18 18:00N 37°35' E 023°44'613.0
2017-Apr-18 17:30N 37°41' E 023°41'612.0
2017-Apr-18 17:00N 37°47' E 023°38'5 9.2
2017-Apr-18 16:30N 37°51' E 023°36'5 9.5
2017-Apr-18 16:00N 37°56' E 023°37'1 2.3
2017-Apr-18 15:29N 37°56' E 023°38'0 0.0
2017-Apr-18 14:59N 37°56' E 023°38'0 0.0
2017-Apr-18 14:29N 37°56' E 023°38'0 0.0
2017-Apr-18 13:29N 37°56' E 023°38'0 0.0
2017-Apr-18 12:59N 37°56' E 023°38'0 0.0
2017-Apr-18 12:29N 37°56' E 023°38'0 0.0
2017-Apr-18 11:59N 37°56' E 023°38'0 0.0
2017-Apr-18 11:29N 37°56' E 023°38'0 0.0
2017-Apr-18 10:59N 37°56' E 023°38'0 0.0
2017-Apr-18 10:29N 37°56' E 023°38'0 0.0
2017-Apr-18 09:59N 37°56' E 023°38'0 0.0
2017-Apr-18 09:29N 37°56' E 023°38'0 0.0
2017-Apr-18 08:55N 37°56' E 023°38'0 0.0
2017-Apr-18 08:25N 37°56' E 023°38'0 0.0
2017-Apr-18 07:55N 37°56' E 023°38'0 0.0
2017-Apr-18 07:29N 37°56' E 023°38'0 0.0
2017-Apr-18 06:59N 37°56' E 023°38'0 0.0
2017-Apr-18 06:29N 37°56' E 023°38'0 0.0
2017-Apr-18 05:59N 37°56' E 023°38'0 0.0
2017-Apr-18 05:29N 37°56' E 023°38'0 0.0
2017-Apr-18 04:59N 37°56' E 023°38'0 0.0
2017-Apr-18 04:29N 37°56' E 023°38'0 0.4
2017-Apr-18 04:00N 37°56' E 023°38'1 2.6
2017-Apr-18 03:31N 37°56' E 023°37'1 1.5
2017-Apr-18 03:00N 37°55' E 023°37'5 9.3
2017-Apr-18 02:30N 37°51' E 023°39'714.3
2017-Apr-18 02:00N 37°45' E 023°43'713.3
2017-Apr-18 01:31N 37°38' E 023°46'713.8
2017-Apr-18 01:00N 37°31' E 023°47'713.9
2017-Apr-18 00:30N 37°25' E 023°48'713.5
2017-Apr-17 23:59N 37°17' E 023°49'613.7
2017-Apr-17 23:30N 37°14' E 023°55'713.7
2017-Apr-17 22:59N 37°09' E 024°02'713.5
2017-Apr-17 22:29N 37°05' E 024°09'2214.5
2017-Apr-17 21:00N 37°06' E 024°36'1213.5 270 / 141010.310.8 17.013.516.8
2017-Apr-17 20:04N 37°12' E 024°50'114.4
2017-Apr-17 20:00N 37°12' E 024°51'714.4
2017-Apr-17 19:30N 37°16' E 024°59'713.5
2017-Apr-17 19:00N 37°20' E 025°06'713.8
2017-Apr-17 18:30N 37°26' E 025°08'  
Track history (hours):
 
Tides and Currents Weather Stations Pressure Air Temp Water Temp Dewpoint Dewpoint Depression Visibility Wind Speed Wind Dir Waves Ship Positions

Ventura

Last reported at 2017-Apr-27 18:29 UTC. Time now 2017-Apr-27 18:49 UTC.
Position N 51°41' E 002°44'.

Length 289 m; draft 8.6 m.

Type: Passenger vessel. MMSI: 310562000.

Date/timePositionNaut miles runAvg speedWind from/ knotsBaromVisibWave heightAir tempDewpointWater temp
2017-Apr-27 18:29N 51°41' E 002°44'816.9
2017-Apr-27 18:01N 51°33' E 002°42'816.5
2017-Apr-27 17:31N 51°25' E 002°43'611.8
2017-Apr-27 17:01N 51°25' E 002°53'816.1
2017-Apr-27 16:31N 51°24' E 003°05'611.1
2017-Apr-27 16:00N 51°21' E 003°12'1 0.9
2017-Apr-27 15:28N 51°20' E 003°12'0 0.0
2017-Apr-27 14:58N 51°20' E 003°12'0 0.0
2017-Apr-27 13:58N 51°20' E 003°12'0 0.0
2017-Apr-27 13:28N 51°20' E 003°12'0 0.0
2017-Apr-27 12:58N 51°20' E 003°12'0 0.0
2017-Apr-27 12:28N 51°20' E 003°12'0 0.0
2017-Apr-27 11:58N 51°20' E 003°12'0 0.0
2017-Apr-27 11:28N 51°20' E 003°12'0 0.0
2017-Apr-27 10:58N 51°20' E 003°12'0 0.0
2017-Apr-27 10:28N 51°20' E 003°12'0 0.0
2017-Apr-27 09:58N 51°20' E 003°12'0 0.0
2017-Apr-27 09:28N 51°20' E 003°12'0 0.0
2017-Apr-27 08:58N 51°20' E 003°12'0 0.0
2017-Apr-27 08:28N 51°20' E 003°12'0 0.0
2017-Apr-27 07:58N 51°20' E 003°12'0 0.0
2017-Apr-27 07:28N 51°20' E 003°12'0 0.0
2017-Apr-27 06:58N 51°20' E 003°12'0 0.0
2017-Apr-27 06:28N 51°20' E 003°12'0 0.0
2017-Apr-27 06:00N 51°20' E 003°12'0 0.0
2017-Apr-27 05:30N 51°20' E 003°12'1 2.0
2017-Apr-27 05:01N 51°21' E 003°12'510.7
2017-Apr-27 04:30N 51°24' E 003°05'715.0
2017-Apr-27 04:01N 51°22' E 002°54'713.9
2017-Apr-27 03:31N 51°22' E 002°42'510.9
2017-Apr-27 03:01N 51°22' E 002°34'815.8
2017-Apr-27 02:30N 51°19' E 002°22'918.5
2017-Apr-27 02:00N 51°14' E 002°09'1019.2
2017-Apr-27 01:30N 51°09' E 001°56'1019.5
2017-Apr-27 01:00N 51°03' E 001°44'1020.2
2017-Apr-27 00:30N 50°56' E 001°33'1019.6
2017-Apr-27 00:00N 50°47' E 001°26'918.0
2017-Apr-26 23:30N 50°40' E 001°18'2548.1
2017-Apr-26 23:00N 50°24' E 000°48'3 3.1 010 / 301016.010.8 8.1 3.711.1
2017-Apr-26 22:04N 50°26' E 000°45'417.9
2017-Apr-26 21:52N 50°25' E 000°40'618.2
2017-Apr-26 21:30N 50°24' E 000°30'1017.9
2017-Apr-26 20:58N 50°21' E 000°15'818.2
2017-Apr-26 20:30N 50°20' E 000°02'917.8
2017-Apr-26 20:00N 50°21' W 000°11'917.8
2017-Apr-26 19:30N 50°25' W 000°24'917.9
2017-Apr-26 19:00N 50°30' W 000°36'918.1
2017-Apr-26 18:30N 50°35' W 000°48'816.4
2017-Apr-26 18:00N 50°41' W 000°57'612.7
2017-Apr-26 17:30N 50°44' W 001°05'816.3
2017-Apr-26 17:00N 50°47' W 001°18'5 9.0
2017-Apr-26 16:30N 50°51' W 001°20'4 8.9
2017-Apr-26 16:00N 50°54' W 001°25'1 1.1
2017-Apr-26 15:29N 50°54' W 001°26'0 0.0
2017-Apr-26 14:59N 50°54' W 001°26'0 0.0
2017-Apr-26 14:29N 50°54' W 001°26'0 0.0
2017-Apr-26 13:26N 50°54' W 001°26'0 0.0
2017-Apr-26 12:59N 50°54' W 001°26'0 0.0
2017-Apr-26 12:30N 50°54' W 001°26'0 0.0
2017-Apr-26 11:59N 50°54' W 001°26'0 0.0
2017-Apr-26 11:29N 50°54' W 001°26'0 0.0
2017-Apr-26 10:59N 50°54' W 001°26'0 0.0
2017-Apr-26 10:29N 50°54' W 001°26'0 0.0
2017-Apr-26 09:59N 50°54' W 001°26'0 0.0
2017-Apr-26 09:26N 50°54' W 001°26'0 0.0
2017-Apr-26 08:59N 50°54' W 001°26'0 0.0
2017-Apr-26 08:26N 50°54' W 001°26'0 0.0
2017-Apr-26 07:56N 50°54' W 001°26'0 0.0
2017-Apr-26 07:29N 50°54' W 001°26'0 0.0
2017-Apr-26 06:59N 50°54' W 001°26'0 0.0
2017-Apr-26 06:29N 50°54' W 001°26'0 0.0
2017-Apr-26 05:59N 50°54' W 001°26'0 0.0
2017-Apr-26 05:30N 50°54' W 001°26'0 0.2
2017-Apr-26 05:01N 50°54' W 001°26'1 2.2
2017-Apr-26 04:30N 50°54' W 001°25'4 8.3
2017-Apr-26 04:00N 50°51' W 001°20'4 8.5
2017-Apr-26 03:31N 50°47' W 001°19'713.6
2017-Apr-26 03:00N 50°46' W 001°08'713.7
2017-Apr-26 02:31N 50°42' W 000°58'510.2
2017-Apr-26 02:00N 50°37' W 000°59'815.9
2017-Apr-26 01:30N 50°30' W 001°05'816.0
2017-Apr-26 01:00N 50°28' W 001°17'916.4
2017-Apr-26 00:28N 50°25' W 001°30'5622.4
2017-Apr-25 22:00N 49°54' W 000°18'85211.1 360 / 301015.610.8 6.8 0.711.5
2017-Apr-25 21:35N 49°55' W 002°30'216.3
2017-Apr-25 21:30N 49°54' W 002°32'817.2
2017-Apr-25 21:00N 49°52' W 002°45'918.5
2017-Apr-25 20:30N 49°48' W 002°57'918.8
2017-Apr-25 20:00N 49°42' W 003°09'918.5
2017-Apr-25 19:31N 49°37' W 003°21'6319.0
2017-Apr-25 16:10N 48°59' W 004°39'319.7
2017-Apr-25 16:00N 48°57' W 004°43'1019.8
2017-Apr-25 15:30N 48°51' W 004°55'1019.7
2017-Apr-25 15:00N 48°44' W 005°05'1020.1
2017-Apr-25 14:30N 48°37' W 005°16'31919.3
2017-Apr-24 22:00N 44°00' W 009°06'19718.3 270 / 101012.610.8 14.3 9.513.5
2017-Apr-24 11:13N 40°46' W 009°50'419.4
2017-Apr-24 11:00N 40°42' W 009°51'1019.6
2017-Apr-24 10:30N 40°32' W 009°51'1119.7
2017-Apr-24 09:58N 40°21' W 009°51'919.8
2017-Apr-24 09:30N 40°12' W 009°51'1019.8
2017-Apr-24 09:00N 40°02' W 009°51'918.5
2017-Apr-24 08:30N 39°53' W 009°50'917.6
2017-Apr-24 08:01N 39°44' W 009°50'1019.5
2017-Apr-24 07:30N 39°35' W 009°51'1019.6
2017-Apr-24 07:00N 39°25' W 009°51'1019.4
2017-Apr-24 06:31N 39°15' W 009°51'1019.6
2017-Apr-24 06:01N 39°05' W 009°51'1019.5
2017-Apr-24 05:30N 38°56' W 009°51'1019.3
2017-Apr-24 05:00N 38°46' W 009°51'1019.6
2017-Apr-24 04:31N 38°36' W 009°49'1019.7
2017-Apr-24 04:01N 38°27' W 009°46'1019.8
2017-Apr-24 03:31N 38°17' W 009°42'1020.0
2017-Apr-24 03:01N 38°08' W 009°39'1019.8
2017-Apr-24 02:31N 37°58' W 009°36'1020.3
2017-Apr-24 02:00N 37°48' W 009°32'1020.2
2017-Apr-24 01:31N 37°38' W 009°30'1020.4
2017-Apr-24 01:01N 37°28' W 009°28'1020.4
2017-Apr-24 00:31N 37°18' W 009°25'1020.3
2017-Apr-24 00:01N 37°08' W 009°22'1020.2
2017-Apr-23 23:31N 36°58' W 009°20'1019.4
2017-Apr-23 23:01N 36°50' W 009°15'1019.4
2017-Apr-23 22:31N 36°45' W 009°05'1020.0
2017-Apr-23 22:01N 36°42' W 008°53'1019.9
2017-Apr-23 21:31N 36°39' W 008°41'1019.9
2017-Apr-23 21:01N 36°35' W 008°30'1019.8
2017-Apr-23 20:31N 36°33' W 008°18'1019.9
2017-Apr-23 19:59N 36°30' W 008°05'11919.7
2017-Apr-23 13:56N 35°58' W 005°43'818.4
2017-Apr-23 13:30N 35°59' W 005°34'917.6
2017-Apr-23 13:01N 36°03' W 005°24'611.8
2017-Apr-23 12:30N 36°09' W 005°22'0 0.4
2017-Apr-23 12:00N 36°09' W 005°22'0 0.0
2017-Apr-23 11:30N 36°09' W 005°22'0 0.0
2017-Apr-23 11:00N 36°09' W 005°22'0 0.0
2017-Apr-23 10:30N 36°09' W 005°22'0 0.0
2017-Apr-23 10:00N 36°09' W 005°22'0 0.0
2017-Apr-23 09:30N 36°09' W 005°22'0 0.0
2017-Apr-23 09:00N 36°09' W 005°22'0 0.0
2017-Apr-23 08:30N 36°09' W 005°22'0 0.0
2017-Apr-23 08:00N 36°09' W 005°22'0 0.0
2017-Apr-23 07:30N 36°09' W 005°22'0 0.0
2017-Apr-23 07:00N 36°09' W 005°22'0 0.0
2017-Apr-23 06:30N 36°09' W 005°22'0 0.0
2017-Apr-23 06:00N 36°09' W 005°22'0 0.0
2017-Apr-23 05:30N 36°09' W 005°22'1 1.3
2017-Apr-23 05:00N 36°08' W 005°22'4 7.2
2017-Apr-23 04:30N 36°05' W 005°20'816.8
2017-Apr-23 04:00N 36°09' W 005°11'917.7
2017-Apr-23 03:30N 36°14' W 005°02'21111.9
2017-Apr-22 09:44N 37°30' W 000°56'417.8
2017-Apr-22 09:30N 37°30' W 000°50'919.0
2017-Apr-22 09:00N 37°30' W 000°39'1019.4
2017-Apr-22 08:31N 37°29' W 000°27'1121.5
2017-Apr-22 08:00N 37°30' W 000°13'65821.1
2017-Apr-21 00:52N 36°45' E 013°30'822.4
2017-Apr-21 00:30N 36°43' E 013°40'1121.9
2017-Apr-21 00:00N 36°39' E 013°53'1121.6
2017-Apr-20 23:30N 36°37' E 014°06'1121.7
2017-Apr-20 23:00N 36°34' E 014°19'1121.7
2017-Apr-20 22:30N 36°30' E 014°32'1121.5
2017-Apr-20 22:00N 36°27' E 014°45'40816.0
2017-Apr-19 20:32N 36°22' E 023°12'64 2.5
2017-Apr-18 19:21N 37°19' E 023°48'412.8
2017-Apr-18 19:00N 37°23' E 023°47'612.8
2017-Apr-18 18:30N 37°29' E 023°46'612.6
2017-Apr-18 18:00N 37°35' E 023°44'613.0
2017-Apr-18 17:30N 37°41' E 023°41'612.0
2017-Apr-18 17:00N 37°47' E 023°38'5 9.2
2017-Apr-18 16:30N 37°51' E 023°36'5 9.5
2017-Apr-18 16:00N 37°56' E 023°37'1 2.3
2017-Apr-18 15:29N 37°56' E 023°38'0 0.0
2017-Apr-18 14:59N 37°56' E 023°38'0 0.0
2017-Apr-18 14:29N 37°56' E 023°38'0 0.0
2017-Apr-18 13:29N 37°56' E 023°38'0 0.0
2017-Apr-18 12:59N 37°56' E 023°38'0 0.0
2017-Apr-18 12:29N 37°56' E 023°38'0 0.0
2017-Apr-18 11:59N 37°56' E 023°38'0 0.0
2017-Apr-18 11:29N 37°56' E 023°38'0 0.0
2017-Apr-18 10:59N 37°56' E 023°38'0 0.0
2017-Apr-18 10:29N 37°56' E 023°38'0 0.0
2017-Apr-18 09:59N 37°56' E 023°38'0 0.0
2017-Apr-18 09:29N 37°56' E 023°38'0 0.0
2017-Apr-18 08:55N 37°56' E 023°38'0 0.0
2017-Apr-18 08:25N 37°56' E 023°38'0 0.0
2017-Apr-18 07:55N 37°56' E 023°38'0 0.0
2017-Apr-18 07:29N 37°56' E 023°38'0 0.0
2017-Apr-18 06:59N 37°56' E 023°38'0 0.0
2017-Apr-18 06:29N 37°56' E 023°38'0 0.0
2017-Apr-18 05:59N 37°56' E 023°38'0 0.0
2017-Apr-18 05:29N 37°56' E 023°38'0 0.0
2017-Apr-18 04:59N 37°56' E 023°38'0 0.0
2017-Apr-18 04:29N 37°56' E 023°38'0 0.4
2017-Apr-18 04:00N 37°56' E 023°38'1 2.6
2017-Apr-18 03:31N 37°56' E 023°37'1 1.5
2017-Apr-18 03:00N 37°55' E 023°37'5 9.3
2017-Apr-18 02:30N 37°51' E 023°39'714.3
2017-Apr-18 02:00N 37°45' E 023°43'713.3
2017-Apr-18 01:31N 37°38' E 023°46'713.8
2017-Apr-18 01:00N 37°31' E 023°47'713.9
2017-Apr-18 00:30N 37°25' E 023°48'713.5
2017-Apr-17 23:59N 37°17' E 023°49'613.7
2017-Apr-17 23:30N 37°14' E 023°55'713.7
2017-Apr-17 22:59N 37°09' E 024°02'713.5
2017-Apr-17 22:29N 37°05' E 024°09'2214.5
2017-Apr-17 21:00N 37°06' E 024°36'1213.5 270 / 141010.310.8 17.013.516.8
2017-Apr-17 20:04N 37°12' E 024°50'114.4
2017-Apr-17 20:00N 37°12' E 024°51'714.4
2017-Apr-17 19:30N 37°16' E 024°59'713.5
2017-Apr-17 19:00N 37°20' E 025°06'713.8
2017-Apr-17 18:30N 37°26' E 025°08'  

Dump ship's entire track history